Time;durP1;ratioP1;P1;durP2;ratioP2;P2;SDS_P1;SDS_P2;PMS_P1;PMS_P2;Temp;Humidity;BMP_temperature;BMP_pressure;BME280_temperature;BME280_humidity;BME280_pressure;Samples;Min_cycle;Max_cycle;Signal;HPM_P1;HPM_P2
2022/02/25 00:16:52;;;;;;;8.57;1.80;;;;;;;2.64;100.00;101414.34;2602900;54;20042;31
2022/02/25 00:27:10;;;;;;;11.50;1.80;;;;;;;2.50;100.00;101422.09;2603046;54;20018;31
2022/02/25 00:29:46;;;;;;;10.52;2.17;;;;;;;2.47;100.00;101427.56;2603503;46;20489;31
2022/02/25 00:35:05;;;;;;;10.10;2.33;;;;;;;2.53;100.00;101416.63;2603097;54;20081;31
2022/02/25 00:37:40;;;;;;;10.40;2.22;;;;;;;2.50;100.00;101422.09;2603227;47;21149;31
2022/02/25 00:40:16;;;;;;;11.88;2.13;;;;;;;2.49;100.00;101420.38;2602955;54;20026;31
2022/02/25 00:42:52;;;;;;;10.82;1.80;;;;;;;2.51;100.00;101423.84;2603308;54;20379;31
2022/02/25 00:48:08;;;;;;;9.43;1.88;;;;;;;2.46;100.00;101424.03;2614341;39;20428;31
2022/02/25 00:50:46;;;;;;;10.60;1.80;;;;;;;2.50;100.00;101427.41;2623764;39;20903;31
2022/02/25 00:58:36;;;;;;;12.05;2.25;;;;;;;2.44;100.00;101436.53;2602587;54;20027;31
2022/02/25 01:01:13;;;;;;;15.37;2.17;;;;;;;2.48;100.00;101438.09;2603498;54;20033;31
2022/02/25 01:21:46;;;;;;;7.45;2.30;;;;;;;2.29;100.00;101446.03;2602700;54;20112;31
2022/02/25 01:32:01;;;;;;;10.52;2.25;;;;;;;2.20;100.00;101457.94;2607953;39;21644;31
2022/02/25 01:34:37;;;;;;;10.88;2.15;;;;;;;2.23;100.00;101462.25;2622108;36;21430;31
2022/02/25 01:37:16;;;;;;;10.90;2.20;;;;;;;2.13;100.00;101460.94;2603587;46;20479;31
2022/02/25 01:39:52;;;;;;;9.30;1.77;;;;;;;2.10;100.00;101465.44;2603563;46;20250;31
2022/02/25 01:42:28;;;;;;;9.47;1.87;;;;;;;2.07;100.00;101462.91;2603965;54;20322;31
2022/02/25 01:47:45;;;;;;;12.85;2.00;;;;;;;2.03;100.00;101466.66;2604977;39;20334;31
2022/02/25 01:50:22;;;;;;;14.40;1.90;;;;;;;2.08;100.00;101475.28;2604085;46;20031;31
2022/02/25 02:03:18;;;;;;;11.45;1.90;;;;;;;2.17;100.00;101471.34;2603447;54;21105;31
2022/02/25 02:05:55;;;;;;;10.13;2.40;;;;;;;2.14;100.00;101474.16;2604559;39;20339;31
2022/02/25 02:08:31;;;;;;;11.15;2.50;;;;;;;2.10;100.00;101472.53;2603224;46;20030;31
2022/02/25 02:11:06;;;;;;;13.30;1.92;;;;;;;2.17;100.00;101467.84;2603530;54;21199;31
2022/02/25 02:13:42;;;;;;;11.10;1.90;;;;;;;2.09;100.00;101461.06;2603253;54;20032;31
2022/02/25 02:16:19;;;;;;;12.90;2.20;;;;;;;2.10;100.00;101467.22;2614760;39;20383;31
2022/02/25 02:18:57;;;;;;;11.48;1.83;;;;;;;2.06;100.00;101468.28;2603936;47;21144;31
2022/02/25 02:31:55;;;;;;;9.93;2.10;;;;;;;1.97;100.00;101466.88;2602738;54;20030;31
2022/02/25 02:37:05;;;;;;;10.25;2.35;;;;;;;1.90;100.00;101460.16;2603241;54;20057;31
2022/02/25 02:39:41;;;;;;;12.57;2.45;;;;;;;1.90;100.00;101461.00;2603600;47;21481;31
2022/02/25 02:47:25;;;;;;;13.45;2.63;;;;;;;1.96;100.00;101457.22;2602869;54;20026;31
2022/02/25 02:52:35;;;;;;;10.00;2.55;;;;;;;1.93;100.00;101460.00;2603070;54;20053;31
2022/02/25 02:55:11;;;;;;;10.25;1.85;;;;;;;2.00;100.00;101456.13;2605023;39;20316;31
2022/02/25 02:57:47;;;;;;;12.07;2.45;;;;;;;1.99;100.00;101453.56;2603798;54;20049;31
2022/02/25 03:05:39;;;;;;;9.80;2.22;;;;;;;1.98;100.00;101457.16;2602898;54;21958;31
2022/02/25 03:08:15;;;;;;;9.18;1.92;;;;;;;1.99;100.00;101459.75;2665263;31;20470;31
2022/02/25 03:10:51;;;;;;;14.48;2.80;;;;;;;2.13;100.00;101455.63;2614893;39;20323;31
2022/02/25 03:18:39;;;;;;;16.30;2.90;;;;;;;2.18;100.00;101448.31;2602623;54;20942;31
2022/02/25 03:26:24;;;;;;;10.97;2.47;;;;;;;2.24;100.00;101442.75;2602892;54;20339;31
2022/02/25 03:29:03;;;;;;;16.10;2.28;;;;;;;2.18;100.00;101437.69;2603697;54;20968;31
2022/02/25 03:41:57;;;;;;;;;;;;;;;2.24;100.00;101442.75;2603417;54;20486;31
2022/02/25 03:44:39;;;;;;;17.55;3.00;;;;;;;2.22;100.00;101449.91;2603448;47;20286;31
2022/02/25 03:49:49;;;;;;;16.05;2.53;;;;;;;2.31;100.00;101444.16;2635127;39;20630;31
2022/02/25 03:52:25;;;;;;;10.47;2.37;;;;;;;2.28;100.00;101450.50;2603386;54;20030;31
2022/02/25 03:55:00;;;;;;;12.50;2.47;;;;;;;2.23;100.00;101456.94;2603215;54;21259;31
2022/02/25 04:00:13;;;;;;;15.05;2.75;;;;;;;2.18;100.00;101456.28;2603104;54;20026;31
2022/02/25 04:02:50;;;;;;;15.60;2.53;;;;;;;2.15;100.00;101453.75;2602955;47;20065;31
2022/02/25 04:05:27;;;;;;;10.50;2.90;;;;;;;2.12;100.00;101459.19;2603420;47;20081;31
2022/02/25 04:15:52;;;;;;;14.38;2.65;;;;;;;1.94;100.00;101472.34;2614169;39;20282;31
2022/02/25 04:23:36;;;;;;;8.00;2.50;;;;;;;1.98;100.00;101473.94;2602785;54;20720;31
2022/02/25 04:26:13;;;;;;;12.50;2.20;;;;;;;1.99;100.00;101475.66;2602823;47;20038;31
2022/02/25 04:28:50;;;;;;;10.95;2.55;;;;;;;1.93;100.00;101475.94;2602849;54;20235;31
2022/02/25 04:31:28;;;;;;;8.55;2.40;;;;;;;1.85;100.00;101467.44;2602719;47;20324;31
2022/02/25 04:34:03;;;;;;;11.20;2.30;;;;;;;1.78;100.00;101469.47;2603314;47;21033;31
2022/02/25 04:36:42;;;;;;;18.10;2.70;;;;;;;1.83;100.00;101477.25;2621213;36;19944;31
2022/02/25 04:41:53;;;;;;;16.58;2.75;;;;;;;1.88;100.00;101483.22;2602500;54;20112;31
2022/02/25 04:44:30;;;;;;;10.00;2.63;;;;;;;1.97;100.00;101481.97;2603166;47;20037;31
2022/02/25 04:52:21;;;;;;;10.30;2.60;;;;;;;2.28;100.00;101484.16;2613984;39;20354;31
2022/02/25 04:54:57;;;;;;;13.27;2.90;;;;;;;2.34;100.00;101485.69;2602962;54;20077;31
2022/02/25 04:57:34;;;;;;;14.82;2.67;;;;;;;2.37;100.00;101481.13;2603177;54;20026;31
2022/02/25 05:02:46;;;;;;;13.48;3.00;;;;;;;2.32;100.00;101482.25;2604468;39;20318;31
2022/02/25 05:05:28;;;;;;;11.40;2.53;;;;;;;2.27;100.00;101482.44;2602859;47;20396;31
2022/02/25 05:08:07;;;;;;;17.08;2.85;;;;;;;2.27;100.00;101482.44;2602547;47;20068;31
2022/02/25 05:10:42;;;;;;;15.20;3.10;;;;;;;2.26;100.00;101478.91;2621496;36;20022;31
2022/02/25 05:23:31;;;;;;;17.33;3.85;;;;;;;2.21;100.00;101491.53;2602262;54;21391;31
2022/02/25 05:26:06;;;;;;;16.15;3.05;;;;;;;2.24;100.00;101495.88;2604565;39;21066;31
2022/02/25 05:28:42;;;;;;;17.83;3.35;;;;;;;2.30;100.00;101498.25;2621423;36;20022;31
2022/02/25 05:39:07;;;;;;;15.27;2.88;;;;;;;2.39;100.00;101494.31;2602526;54;20238;31
2022/02/25 05:44:16;;;;;;;15.43;3.25;;;;;;;2.44;100.00;101492.31;2602432;54;20451;31
2022/02/25 05:46:53;;;;;;;15.80;3.20;;;;;;;2.48;100.00;101496.56;2603346;54;20424;31
2022/02/25 05:54:46;;;;;;;15.30;3.50;;;;;;;2.52;100.00;101507.91;2602302;54;20108;31
2022/02/25 05:59:55;;;;;;;16.90;3.80;;;;;;;2.63;100.00;101509.19;2602548;54;20342;31
2022/02/25 06:05:03;;;;;;;16.90;2.88;;;;;;;2.61;100.00;101504.84;2602693;54;21290;31
2022/02/25 06:07:40;;;;;;;13.10;2.80;;;;;;;2.58;100.00;101507.66;2603408;54;20049;31
2022/02/25 06:15:33;;;;;;;21.35;4.00;;;;;;;2.63;100.00;101516.28;2602806;54;20030;31
2022/02/25 06:18:09;;;;;;;21.40;3.73;;;;;;;2.65;100.00;101521.53;2629414;31;21615;31
2022/02/25 06:20:46;;;;;;;19.35;4.30;;;;;;;2.64;100.00;101531.31;2615064;39;20355;31
2022/02/25 06:23:25;;;;;;;21.70;4.15;;;;;;;2.67;100.00;101533.81;2603780;47;20030;31
2022/02/25 06:31:18;;;;;;;22.50;4.40;;;;;;;2.69;100.00;101547.88;2602792;54;20093;31
2022/02/25 06:36:34;;;;;;;20.45;3.35;;;;;;;2.75;100.00;101558.28;2604489;54;20356;31
2022/02/25 06:39:13;;;;;;;23.60;4.63;;;;;;;2.72;100.00;101566.34;2603854;47;20033;31
2022/02/25 06:47:06;;;;;;;25.40;4.00;;;;;;;2.77;100.00;101584.78;2602847;54;20314;31
2022/02/25 06:57:24;;;;;;;15.80;3.60;;;;;;;2.87;100.00;101612.69;2602984;54;20094;31
2022/02/25 07:02:37;;;;;;;20.70;3.70;;;;;;;2.99;100.00;101603.31;2602863;54;20080;31
2022/02/25 07:05:13;;;;;;;;;;;;;;;3.07;100.00;101603.81;2603394;54;21413;31
2022/02/25 07:07:49;;;;;;;23.45;3.95;;;;;;;3.13;100.00;101606.19;2603729;47;19938;31
2022/02/25 07:15:45;;;;;;;23.90;3.50;;;;;;;3.27;100.00;101612.69;2604750;39;20721;31
2022/02/25 07:18:24;;;;;;;15.10;4.30;;;;;;;3.23;100.00;101614.63;2603380;47;20029;31
2022/02/25 07:23:33;;;;;;;22.30;3.87;;;;;;;3.40;100.00;101628.94;2603080;54;20022;31
2022/02/25 07:28:43;;;;;;;19.63;5.03;;;;;;;3.49;100.00;101626.72;2602747;54;20042;31
2022/02/25 07:33:56;;;;;;;19.45;4.03;;;;;;;3.78;100.00;101632.44;2604212;39;20633;31
2022/02/25 07:39:11;;;;;;;15.10;3.10;;;;;;;3.89;100.00;101636.41;2602958;54;20332;31
2022/02/25 07:41:47;;;;;;;17.45;3.53;;;;;;;3.95;100.00;101644.13;2603431;47;20077;31
2022/02/25 07:49:39;;;;;;;20.77;3.40;;;;;;;4.15;100.00;101644.00;2603002;54;20022;31
2022/02/25 07:54:47;;;;;;;12.05;2.85;;;;;;;4.22;100.00;101655.22;2603031;54;21491;31
2022/02/25 07:57:23;;;;;;;19.98;2.95;;;;;;;4.25;100.00;101657.72;2603515;54;21117;31
2022/02/25 08:05:15;;;;;;;12.00;2.93;;;;;;;4.31;100.00;101670.75;2602385;54;20038;31
2022/02/25 08:10:24;;;;;;;19.90;3.95;;;;;;;4.71;100.00;101681.22;2629711;39;20900;31
2022/02/25 08:13:00;;;;;;;26.10;3.55;;;;;;;4.78;100.00;101695.13;2603549;46;20053;31
2022/02/25 08:20:50;;;;;;;;;;;;;;;4.90;100.00;101708.69;2602455;54;20026;31
2022/02/25 08:23:28;;;;;;;19.75;2.95;;;;;;;4.79;100.00;101708.38;2603390;47;19931;31
2022/02/25 08:33:55;;;;;;;18.35;3.08;;;;;;;5.30;100.00;101716.44;2603211;39;21639;31
2022/02/25 08:41:43;;;;;;;15.18;3.03;;;;;;;5.48;100.00;101735.06;2604046;39;20351;31
2022/02/25 08:47:03;;;;;;;14.80;3.10;;;;;;;4.79;100.00;101745.72;2626662;39;20967;31
2022/02/25 08:58:26;;;;;;;18.60;3.10;;;;;;;5.06;100.00;101758.59;2603174;54;20022;31
2022/02/25 09:01:12;;;;;;;10.85;3.40;;;;;;;5.11;100.00;101764.56;2603144;47;20250;31
2022/02/25 09:06:50;;;;;;;12.60;3.00;;;;;;;5.78;100.00;101760.13;2602445;54;20431;31
2022/02/25 09:09:37;;;;;;;17.10;3.00;;;;;;;6.09;100.00;101773.69;2602939;54;20430;31
2022/02/25 09:15:07;;;;;;;19.65;3.80;;;;;;;5.99;100.00;101769.78;2603398;54;20030;31
2022/02/25 09:28:08;;;;;;;11.90;3.00;;;;;;;6.06;100.00;101790.72;2602201;54;20456;31
2022/02/25 09:33:22;;;;;;;23.42;3.33;;;;;;;6.17;100.00;101797.31;2602741;54;20026;31
2022/02/25 09:35:59;;;;;;;12.40;3.05;;;;;;;6.12;100.00;101801.13;2602810;47;20597;31
2022/02/25 09:38:34;;;;;;;17.45;2.85;;;;;;;5.99;100.00;101812.53;2619125;39;20913;31
2022/02/25 09:43:47;;;;;;;13.63;3.28;;;;;;;5.82;100.00;101811.59;2602637;54;20092;31
2022/02/25 09:51:32;;;;;;;18.77;3.35;;;;;;;5.83;100.00;101821.38;2604054;39;20291;31
2022/02/25 09:56:41;;;;;;;16.15;3.60;;;;;;;6.12;100.00;101826.97;2603151;54;21794;31
2022/02/25 09:59:17;;;;;;;10.45;2.70;;;;;;;6.18;100.00;101837.31;2603615;46;20394;31
2022/02/25 10:09:43;;;;;;;11.27;3.42;;;;;;;5.69;100.00;101845.25;2602759;54;20046;31
2022/02/25 10:12:19;;;;;;;16.50;2.95;;;;;;;5.49;100.00;101849.84;2604401;39;21086;31
2022/02/25 10:31:38;;;;;;;16.02;3.03;;;;;;;4.65;100.00;101922.41;2602935;54;20376;31
2022/02/25 10:40:14;;;;;;;17.88;3.75;;;;;;;5.30;100.00;101934.44;2609338;39;20386;31
2022/02/25 10:45:31;;;;;;;16.95;3.20;;;;;;;5.71;100.00;101939.53;2647917;31;20038;31
2022/02/25 10:50:47;;;;;;;13.25;2.85;;;;;;;5.87;100.00;101939.59;2602911;54;21372;31
2022/02/25 10:56:08;;;;;;;14.25;2.85;;;;;;;5.85;100.00;101950.38;2602955;54;20022;31
2022/02/25 11:07:16;;;;;;;20.40;3.60;;;;;;;6.00;100.00;101975.47;2610123;39;20306;31
2022/02/25 11:25:35;;;;;;;15.10;3.10;;;;;;;6.67;100.00;101999.63;2602583;54;20466;31
2022/02/25 11:28:17;;;;;;;13.68;2.85;;;;;;;6.56;100.00;102005.53;2603481;47;21403;31
2022/02/25 11:33:45;;;;;;;18.10;2.85;;;;;;;6.70;100.00;102025.31;2604082;54;21084;31
2022/02/25 11:46:49;;;;;;;15.10;3.00;;;;;;;7.15;100.00;102034.47;2603413;54;20442;31
2022/02/25 11:49:30;;;;;;;17.98;2.80;;;;;;;7.14;100.00;102024.72;2603952;47;21207;31
2022/02/25 11:54:52;;;;;;;14.07;2.80;;;;;;;7.01;100.00;102029.91;2603459;54;20306;31
2022/02/25 11:57:29;;;;;;;12.90;2.65;;;;;;;6.84;100.00;102034.31;2687592;39;20256;31
2022/02/25 12:05:20;;;;;;;16.30;3.60;;;;;;;6.69;100.00;102040.53;2629235;39;20427;31
2022/02/25 12:10:36;;;;;;;17.25;3.22;;;;;;;6.81;100.00;102049.69;2602628;54;20096;31
2022/02/25 12:16:00;;;;;;;15.77;2.72;;;;;;;7.35;100.00;102054.81;2602324;54;20034;31
2022/02/25 12:18:42;;;;;;;20.80;3.10;;;;;;;7.43;100.00;102047.19;2621794;36;20038;31
2022/02/25 12:24:11;;;;;;;16.80;3.07;;;;;;;7.46;100.00;102046.16;2602025;54;20035;31
2022/02/25 12:27:01;;;;;;;18.58;3.13;;;;;;;7.44;100.00;102061.47;2621268;36;20864;31
2022/02/25 12:40:10;;;;;;;16.52;3.08;;;;;;;8.06;100.00;102081.09;2602473;54;20359;31
2022/02/25 12:42:49;;;;;;;19.87;4.23;;;;;;;7.86;100.00;102092.09;2603205;46;21092;31
2022/02/25 12:50:33;;;;;;;14.52;3.25;;;;;;;8.07;100.00;102117.69;2602553;54;20038;31
2022/02/25 12:53:08;;;;;;;23.65;4.20;;;;;;;7.69;100.00;102126.09;2603268;47;21119;31
2022/02/25 12:58:36;;;;;;;16.20;3.47;;;;;;;7.04;100.00;102128.78;2608068;39;20435;31
2022/02/25 13:04:00;;;;;;;20.40;3.00;;;;;;;6.50;100.00;102190.41;2602154;54;20034;31
2022/02/25 13:06:37;;;;;;;8.63;1.55;;;;;;;5.58;100.00;102177.84;2621412;36;21104;31
2022/02/25 13:17:28;;;;;;;6.88;1.48;;;;;;;5.82;100.00;102180.31;2603130;39;20835;31
2022/02/25 13:20:07;;;;;;;8.65;1.60;;;;;;;5.85;100.00;102174.81;2603403;46;20030;31
2022/02/25 13:38:24;;;;;;;12.98;2.20;;;;;;;5.60;100.00;102212.50;2604099;39;20374;31
2022/02/25 13:41:09;;;;;;;18.50;3.40;;;;;;;5.77;100.00;102212.59;2603178;47;20042;31
2022/02/25 14:07:46;;;;;;;14.52;2.53;;;;;;;7.05;100.00;102258.13;2602779;54;20039;31
2022/02/25 14:10:25;;;;;;;15.40;3.10;;;;;;;7.21;100.00;102264.41;2603342;47;20042;31
2022/02/25 14:28:59;;;;;;;11.18;2.85;;;;;;;7.64;100.00;102283.59;2612088;54;20086;31
2022/02/25 14:31:35;;;;;;;15.30;2.50;;;;;;;7.51;100.00;102290.56;2602663;47;20403;31
2022/02/25 14:42:45;;;;;;;5.18;1.08;;;;;;;6.78;100.00;102312.09;2602987;54;20034;31
2022/02/25 14:45:30;;;;;;;3.58;1.30;;;;;;;6.62;100.00;102318.19;2603167;47;20042;31
2022/02/25 14:56:34;;;;;;;2.87;0.90;;;;;;;6.03;100.00;102351.31;2635359;39;20885;31
2022/02/25 15:04:32;;;;;;;4.35;1.10;;;;;;;5.89;100.00;102360.78;2602938;54;21303;31
2022/02/25 15:09:57;;;;;;;5.85;1.50;;;;;;;5.90;100.00;102367.88;2604548;54;21160;31
2022/02/25 15:25:33;;;;;;;18.60;2.30;;;;;;;6.32;100.00;102374.88;2602573;54;20548;31
2022/02/25 15:28:21;;;;;;;10.45;2.60;;;;;;;6.40;100.00;102382.53;2603606;47;20050;31
2022/02/25 15:38:55;;;;;;;15.10;2.40;;;;;;;6.52;100.00;102397.16;2602725;54;19946;31
2022/02/25 15:41:31;;;;;;;11.52;2.75;;;;;;;6.58;100.00;102406.69;2603299;54;20266;31
2022/02/25 15:49:23;;;;;;;18.70;2.95;;;;;;;6.75;100.00;102414.81;2602520;54;20297;31
2022/02/25 15:59:41;;;;;;;24.02;3.67;;;;;;;6.57;100.00;102437.94;2602768;54;21053;31
2022/02/25 16:02:19;;;;;;;20.73;3.00;;;;;;;6.52;100.00;102444.44;2621962;31;20964;31
2022/02/25 16:10:05;;;;;;;15.30;3.40;;;;;;;6.52;100.00;102450.66;2606337;39;20620;31
2022/02/25 16:12:42;;;;;;;16.25;3.70;;;;;;;6.43;100.00;102456.44;2621219;36;20396;31
2022/02/25 16:20:28;;;;;;;18.30;3.75;;;;;;;6.31;100.00;102477.44;2606355;39;20276;31
2022/02/25 16:25:40;;;;;;;14.32;3.05;;;;;;;6.15;100.00;102479.06;2602664;54;21236;31
2022/02/25 16:28:19;;;;;;;16.75;3.30;;;;;;;6.12;100.00;102489.88;2602018;54;20084;31
2022/02/25 16:38:35;;;;;;;13.68;2.28;;;;;;;6.02;100.00;102509.94;2601925;54;20038;31
2022/02/25 16:46:25;;;;;;;11.65;1.95;;;;;;;5.89;100.00;102525.56;2605917;39;20349;31
2022/02/25 16:49:03;;;;;;;10.13;1.92;;;;;;;5.90;100.00;102533.56;2602381;47;21294;31
2022/02/25 16:51:40;;;;;;;14.20;2.60;;;;;;;5.91;100.00;102537.94;2605940;39;20312;31
2022/02/25 16:54:15;;;;;;;14.50;2.28;;;;;;;5.79;100.00;102551.84;2602571;54;21352;31
2022/02/25 17:02:03;;;;;;;;;;;;;;;5.67;100.00;102553.22;2601616;54;20435;31
2022/02/25 17:04:42;;;;;;;14.90;2.65;;;;;;;5.64;100.00;102564.03;2625171;36;20766;31
2022/02/25 17:09:59;;;;;;;12.47;2.80;;;;;;;5.52;100.00;102570.72;2601550;54;20042;31
2022/02/25 17:12:34;;;;;;;12.38;2.67;;;;;;;5.40;100.00;102592.56;2602165;54;20981;31
2022/02/25 17:17:44;;;;;;;20.80;3.28;;;;;;;5.24;100.00;102603.84;2601650;54;20427;31
2022/02/25 17:25:29;;;;;;;12.45;2.92;;;;;;;5.10;100.00;102627.50;2601491;54;20406;31
2022/02/25 17:33:13;;;;;;;14.38;2.55;;;;;;;5.04;100.00;102638.41;2601818;54;20073;31
2022/02/25 17:38:22;;;;;;;13.10;3.50;;;;;;;5.07;100.00;102648.97;2605344;39;20427;31
2022/02/25 17:43:34;;;;;;;25.88;3.85;;;;;;;5.09;100.00;102668.47;2601622;54;20492;31
2022/02/25 17:46:11;;;;;;;22.63;4.00;;;;;;;5.13;100.00;102678.09;2601342;47;20100;31
2022/02/25 17:48:52;;;;;;;20.85;3.78;;;;;;;5.18;100.00;102678.81;2601610;54;21387;31
2022/02/25 17:51:29;;;;;;;16.83;3.25;;;;;;;5.24;100.00;102680.38;2605573;39;21553;31
2022/02/25 17:56:45;;;;;;;22.20;2.95;;;;;;;5.26;100.00;102691.88;2601332;54;20456;31
2022/02/25 17:59:23;;;;;;;19.17;3.22;;;;;;;5.33;100.00;102696.06;2605599;39;20291;31
2022/02/25 18:07:19;;;;;;;25.40;4.47;;;;;;;5.38;100.00;102712.78;2602252;54;20916;31
2022/02/25 18:09:58;;;;;;;25.50;6.60;;;;;;;5.39;100.00;102711.84;2603122;47;20023;31
2022/02/25 18:17:47;;;;;;;26.20;5.00;;;;;;;5.22;100.00;102732.97;2602189;54;20526;31
2022/02/25 18:28:06;;;;;;;40.63;11.57;;;;;;;5.05;100.00;102753.13;2602348;54;20042;31
2022/02/25 18:30:41;;;;;;;61.90;20.40;;;;;;;5.01;100.00;102761.28;2621734;36;20961;31
2022/02/25 18:40:58;;;;;;;44.85;14.88;;;;;;;4.90;100.00;102783.88;2605070;39;20224;31
2022/02/25 18:43:33;;;;;;;27.00;9.10;;;;;;;4.83;100.00;102785.00;2603047;47;20034;31
2022/02/25 18:56:33;;;;;;;28.67;7.43;;;;;;;4.64;100.00;102823.84;2602295;54;20030;31
2022/02/25 19:01:44;;;;;;;13.43;4.43;;;;;;;4.55;100.00;102833.06;2602275;54;20023;31
2022/02/25 19:04:21;;;;;;;19.02;4.28;;;;;;;4.54;100.00;102832.16;2602943;47;20305;31
2022/02/25 19:12:12;;;;;;;24.70;4.50;;;;;;;4.53;100.00;102853.53;2601972;54;20840;31
2022/02/25 19:19:57;;;;;;;19.50;4.30;;;;;;;4.51;100.00;102861.59;2602227;54;20034;31
2022/02/25 19:25:06;;;;;;;29.60;4.70;;;;;;;4.39;100.00;102865.50;2602446;54;21438;31
2022/02/25 19:30:18;;;;;;;21.65;4.50;;;;;;;4.31;100.00;102871.97;2602259;54;20833;31
2022/02/25 19:38:03;;;;;;;24.45;4.50;;;;;;;4.25;100.00;102893.50;2602566;54;20334;31
2022/02/25 19:45:49;;;;;;;28.45;8.45;;;;;;;4.04;100.00;102903.84;2602170;54;20050;31
2022/02/25 19:51:04;;;;;;;25.80;6.30;;;;;;;4.02;100.00;102909.22;2602197;54;20038;31
2022/02/25 19:53:42;;;;;;;30.15;5.88;;;;;;;4.06;100.00;102912.66;2601186;47;20735;31
2022/02/25 20:04:03;;;;;;;20.52;5.00;;;;;;;3.98;100.00;102926.22;2602189;54;20034;31
2022/02/25 20:09:12;;;;;;;33.53;7.13;;;;;;;4.04;100.00;102934.03;2602158;54;20026;31
2022/02/25 20:14:22;;;;;;;24.52;5.78;;;;;;;4.13;100.00;102948.03;2602305;54;20654;31
2022/02/25 20:16:59;;;;;;;32.60;5.23;;;;;;;4.15;100.00;102946.19;2602591;47;20042;31
2022/02/25 20:24:45;;;;;;;23.50;5.10;;;;;;;4.18;100.00;102952.31;2608615;31;21133;31
2022/02/25 20:30:00;;;;;;;22.95;4.75;;;;;;;4.15;100.00;102956.84;2602322;54;20231;31
2022/02/25 20:32:48;;;;;;;28.73;4.82;;;;;;;4.06;100.00;102963.28;2602274;46;21081;31
2022/02/25 20:35:34;;;;;;;23.20;4.10;;;;;;;4.04;100.00;102970.47;2602331;47;20069;31
2022/02/25 20:41:05;;;;;;;22.50;3.77;;;;;;;3.95;100.00;102963.59;2603111;54;20053;31
2022/02/25 20:46:31;;;;;;;23.95;3.78;;;;;;;3.85;100.00;102968.28;2602883;54;21192;31
2022/02/25 22:14:36;;;;;;;23.30;5.07;;;;;;;1.62;100.00;103069.56;2602567;54;20390;31
2022/02/25 22:17:13;;;;;;;18.23;4.32;;;;;;;1.56;100.00;103074.94;2603170;54;20419;31
2022/02/25 22:32:57;;;;;;;20.65;4.90;;;;;;;1.33;100.00;103083.25;2602126;54;20951;31
2022/02/25 22:35:43;;;;;;;25.33;6.63;;;;;;;1.23;100.00;103101.06;2602686;47;20323;31
2022/02/25 23:11:12;;;;;;;28.40;5.75;;;;;;;0.90;100.00;103131.53;2602490;54;20031;31
2022/02/25 23:16:41;;;;;;;33.58;5.47;;;;;;;0.92;100.00;103149.19;2602718;54;20026;31
2022/02/25 23:22:07;;;;;;;22.53;5.00;;;;;;;0.80;100.00;103151.97;2609277;39;20274;31
2022/02/25 23:27:17;;;;;;;18.63;4.85;;;;;;;0.70;100.00;103157.34;2603187;54;20371;31
2022/02/25 23:29:54;;;;;;;19.33;4.90;;;;;;;0.64;100.00;103162.72;2603594;54;21023;31
2022/02/25 23:40:18;;;;;;;18.55;4.15;;;;;;;0.64;100.00;103173.31;2602455;54;21538;31
